Time;durP1;ratioP1;P1;durP2;ratioP2;P2;SDS_P1;SDS_P2;PMS_P1;PMS_P2;Temp;Humidity;BMP_temperature;BMP_pressure;BME280_temperature;BME280_humidity;BME280_pressure;Samples;Min_cycle;Max_cycle;Signal;HPM_P1;HPM_P2
2021/08/03 00:00:39;;;;;;;3.25;1.10;;;;;;;14.83;74.74;100630.81;5032128;28;20076;-82
2021/08/03 00:03:08;;;;;;;2.65;1.30;;;;;;;14.82;74.73;100630.94;5041691;28;20128;-81
2021/08/03 00:05:39;;;;;;;7.13;1.48;;;;;;;14.66;75.19;100632.09;5014885;28;20087;-82
2021/08/03 00:08:17;;;;;;;3.38;1.60;;;;;;;14.51;75.99;100633.28;5041248;28;20055;-82
2021/08/03 00:10:44;;;;;;;5.65;1.55;;;;;;;14.53;76.18;100636.63;5031324;28;20420;-80
2021/08/03 00:13:11;;;;;;;3.85;2.03;;;;;;;14.40;77.00;100641.13;5023003;28;20493;-83
2021/08/03 00:15:39;;;;;;;3.40;1.67;;;;;;;14.43;77.20;100619.72;5010219;28;20073;-82
2021/08/03 00:18:06;;;;;;;2.42;1.25;;;;;;;14.17;77.63;100633.09;5010255;28;20136;-80
2021/08/03 00:20:34;;;;;;;5.90;1.50;;;;;;;14.33;78.33;100631.97;5030724;28;20102;-82
2021/08/03 00:23:02;;;;;;;2.80;1.30;;;;;;;14.16;79.05;100631.41;5035366;28;20128;-82
2021/08/03 00:25:29;;;;;;;3.92;1.60;;;;;;;14.21;78.70;100631.06;5028399;28;20088;-81
2021/08/03 00:27:57;;;;;;;6.93;1.90;;;;;;;14.26;78.49;100628.91;5025135;28;20090;-82
2021/08/03 00:30:25;;;;;;;4.97;1.35;;;;;;;14.15;78.55;100631.53;5029641;28;20144;-81
2021/08/03 00:32:53;;;;;;;2.72;1.40;;;;;;;14.15;79.16;100634.19;5021839;28;20049;-82
2021/08/03 00:35:22;;;;;;;3.45;1.73;;;;;;;14.29;78.52;100636.66;5031174;28;20049;-82
2021/08/03 00:37:50;;;;;;;7.60;1.60;;;;;;;14.15;78.46;100637.66;5010636;28;20085;-81
2021/08/03 00:40:18;;;;;;;2.42;1.58;;;;;;;14.14;78.69;100635.97;5021201;28;20060;-83
2021/08/03 00:42:45;;;;;;;3.97;1.42;;;;;;;14.05;79.27;100631.38;5022185;28;20136;-83
2021/08/03 00:45:12;;;;;;;3.30;1.42;;;;;;;14.07;79.31;100634.72;5005884;28;20095;-81
2021/08/03 00:47:39;;;;;;;5.20;1.40;;;;;;;14.06;79.43;100633.03;5003089;28;20054;-79
2021/08/03 00:50:07;;;;;;;4.05;1.50;;;;;;;14.08;79.41;100632.94;5026030;28;20139;-80
2021/08/03 00:52:35;;;;;;;4.93;1.52;;;;;;;14.10;79.67;100634.50;5044721;28;20049;-82
2021/08/03 00:55:04;;;;;;;6.78;1.77;;;;;;;14.09;79.38;100632.81;5016803;28;20127;-81
2021/08/03 00:57:32;;;;;;;4.22;1.75;;;;;;;14.02;79.85;100631.59;5006054;28;20057;-81
2021/08/03 00:59:59;;;;;;;5.13;1.42;;;;;;;13.96;79.79;100631.16;5022512;28;20222;-82
2021/08/03 01:02:27;;;;;;;7.65;1.77;;;;;;;13.88;80.17;100635.22;5043481;28;20515;-80
2021/08/03 01:04:54;;;;;;;5.07;1.58;;;;;;;13.90;80.42;100633.31;5027637;28;20087;-85
2021/08/03 01:07:36;;;;;;;3.13;1.38;;;;;;;13.99;79.90;100630.94;5026521;28;20520;-79
2021/08/03 01:10:27;;;;;;;2.65;1.30;;;;;;;14.01;79.74;100629.91;5007027;28;20056;-81
2021/08/03 01:13:12;;;;;;;6.00;1.50;;;;;;;14.21;79.41;100630.22;4999894;28;20057;-83
2021/08/03 01:16:20;;;;;;;2.75;1.40;;;;;;;14.01;79.59;100629.06;5030190;28;20075;-81
2021/08/03 01:18:55;;;;;;;4.35;1.42;;;;;;;13.95;79.78;100635.63;4997120;28;20346;-84
2021/08/03 01:21:42;;;;;;;6.75;1.83;;;;;;;13.88;80.67;100634.41;5027200;28;20131;-81
2021/08/03 01:24:32;;;;;;;3.28;1.35;;;;;;;13.88;80.69;100632.59;5010878;28;20354;-80
2021/08/03 01:27:11;;;;;;;3.65;1.67;;;;;;;13.77;81.00;100636.94;5026502;28;20390;-81
2021/08/03 01:29:41;;;;;;;5.10;1.63;;;;;;;13.66;81.20;100635.09;5050216;28;20459;-79
2021/08/03 01:32:09;;;;;;;6.57;1.70;;;;;;;13.63;81.67;100643.22;5014266;28;20053;-84
2021/08/03 01:34:38;;;;;;;5.90;1.63;;;;;;;13.59;82.05;100642.59;5010646;28;20140;-82
2021/08/03 01:37:06;;;;;;;3.75;1.40;;;;;;;13.57;82.63;100639.25;5014782;28;20131;-83
2021/08/03 01:39:37;;;;;;;2.97;1.58;;;;;;;13.67;81.96;100637.63;5017512;28;20080;-81
2021/08/03 01:42:06;;;;;;;3.15;1.30;;;;;;;13.76;81.76;100644.06;5021643;28;20056;-83
2021/08/03 01:44:35;;;;;;;11.32;2.78;;;;;;;13.80;81.20;100642.03;5030364;28;20037;-83
2021/08/03 01:47:04;;;;;;;5.97;1.15;;;;;;;13.72;81.45;100644.38;5023931;28;20764;-81
2021/08/03 01:49:35;;;;;;;8.95;1.58;;;;;;;13.94;80.91;100649.81;5022312;28;20065;-82
2021/08/03 01:52:05;;;;;;;3.47;1.60;;;;;;;13.86;80.98;100650.34;5027056;28;20071;-81
2021/08/03 01:54:33;;;;;;;5.85;1.33;;;;;;;13.97;80.73;100651.41;5033770;28;20472;-80
2021/08/03 01:57:02;;;;;;;5.05;1.42;;;;;;;13.97;81.05;100649.59;5012668;28;20372;-84
2021/08/03 01:59:30;;;;;;;5.43;1.60;;;;;;;14.02;80.13;100649.25;5032956;28;20080;-83
2021/08/03 02:01:59;;;;;;;3.42;1.20;;;;;;;14.07;80.55;100657.72;5032164;28;20515;-83
2021/08/03 02:04:28;;;;;;;4.68;1.40;;;;;;;14.11;81.46;100664.47;4995609;28;20057;-81
2021/08/03 02:06:55;;;;;;;2.63;1.70;;;;;;;14.06;80.93;100667.47;5031227;28;20076;-81
2021/08/03 02:09:23;;;;;;;4.35;1.52;;;;;;;14.06;80.44;100653.38;5032316;28;20118;-86
2021/08/03 02:11:51;;;;;;;2.63;1.35;;;;;;;14.16;80.03;100652.59;5029405;28;20110;-84
2021/08/03 02:14:21;;;;;;;6.00;1.80;;;;;;;14.15;80.21;100652.72;5047271;28;20136;-81
2021/08/03 02:16:49;;;;;;;5.80;2.00;;;;;;;13.95;81.32;100654.16;5023735;28;20187;-80
2021/08/03 02:19:16;;;;;;;4.00;1.65;;;;;;;13.87;81.59;100654.72;5031239;28;20140;-82
2021/08/03 02:21:44;;;;;;;7.53;1.98;;;;;;;13.89;81.70;100654.59;5007740;28;20067;-83
2021/08/03 02:24:12;;;;;;;2.22;1.35;;;;;;;13.87;81.54;100657.38;5020147;28;20399;-81
2021/08/03 02:26:40;;;;;;;5.03;1.90;;;;;;;13.84;81.93;100652.28;5028824;28;20050;-82
2021/08/03 02:29:07;;;;;;;4.75;2.20;;;;;;;13.96;81.72;100655.84;5013506;28;20069;-80
2021/08/03 02:31:43;;;;;;;3.35;1.70;;;;;;;14.05;81.29;100657.84;5028970;28;20227;-84
2021/08/03 02:34:14;;;;;;;;;;;;;;;13.99;81.77;100654.78;5017472;28;20069;-81
2021/08/03 02:36:48;;;;;;;8.40;2.20;;;;;;;14.02;82.40;100647.47;5010192;28;20171;-81
2021/08/03 02:39:17;;;;;;;4.97;1.98;;;;;;;14.16;81.75;100652.59;5012736;28;20059;-82
2021/08/03 02:41:45;;;;;;;5.45;2.40;;;;;;;14.19;81.81;100649.72;5044881;28;20236;-81
2021/08/03 02:44:13;;;;;;;6.72;2.28;;;;;;;13.97;82.11;100664.66;5013832;28;20095;-81
2021/08/03 02:46:41;;;;;;;4.88;2.70;;;;;;;13.79;83.69;100658.88;5036536;28;20107;-83
2021/08/03 02:49:12;;;;;;;6.28;2.05;;;;;;;13.62;84.11;100665.34;5057184;28;20055;-86
2021/08/03 02:51:41;;;;;;;6.32;2.00;;;;;;;13.70;84.49;100664.81;5034913;28;20060;-81
2021/08/03 02:54:21;;;;;;;8.52;2.15;;;;;;;13.75;84.52;100665.34;5019321;28;20063;-80
2021/08/03 02:56:49;;;;;;;6.95;2.20;;;;;;;13.60;85.06;100660.19;5031979;28;21552;-83
2021/08/03 02:59:16;;;;;;;4.18;1.83;;;;;;;13.71;85.56;100669.16;5020755;28;20109;-81
2021/08/03 03:01:44;;;;;;;4.63;1.95;;;;;;;13.78;85.24;100673.03;5018883;28;20100;-81
2021/08/03 03:04:20;;;;;;;4.78;2.25;;;;;;;13.86;84.78;100670.69;5015173;28;20041;-81
2021/08/03 03:06:48;;;;;;;;;;;;;;;13.84;85.62;100672.63;5009682;28;21471;-79
2021/08/03 03:09:21;;;;;;;5.18;2.28;;;;;;;13.80;85.33;100671.97;5047226;28;19929;-81
2021/08/03 03:11:50;;;;;;;4.75;2.20;;;;;;;13.73;86.46;100672.53;5009428;28;20439;-83
2021/08/03 03:14:19;;;;;;;8.32;2.15;;;;;;;13.80;85.79;100679.06;5031212;28;20059;-81
2021/08/03 03:16:49;;;;;;;4.93;2.03;;;;;;;13.86;85.30;100679.47;5026925;28;20084;-82
2021/08/03 03:19:17;;;;;;;4.82;2.00;;;;;;;13.75;86.15;100683.84;5004334;28;20208;-82
2021/08/03 03:21:46;;;;;;;7.53;2.35;;;;;;;13.53;86.98;100682.72;5027706;28;20125;-80
2021/08/03 03:24:15;;;;;;;5.20;2.20;;;;;;;13.70;87.02;100683.34;5022675;28;20453;-81
2021/08/03 03:26:43;;;;;;;6.68;2.10;;;;;;;13.71;86.79;100685.03;5010524;28;20065;-82
2021/08/03 03:29:12;;;;;;;5.25;1.98;;;;;;;13.63;87.50;100685.56;5044920;28;20520;-83
2021/08/03 03:31:40;;;;;;;4.82;2.55;;;;;;;13.87;86.75;100685.63;5031570;28;20107;-81
2021/08/03 03:34:09;;;;;;;7.03;2.63;;;;;;;14.02;85.89;100688.97;5031388;28;20079;-82
2021/08/03 03:36:37;;;;;;;4.32;2.08;;;;;;;13.98;84.85;100687.50;5009574;28;20049;-83
2021/08/03 03:39:05;;;;;;;5.97;2.00;;;;;;;13.99;85.11;100690.03;5015021;28;20091;-82
2021/08/03 03:41:33;;;;;;;4.95;1.42;;;;;;;14.13;84.56;100687.22;5006920;28;20041;-81
2021/08/03 03:44:00;;;;;;;3.38;2.08;;;;;;;14.03;85.54;100686.19;5031064;28;20143;-82
2021/08/03 03:46:34;;;;;;;4.45;1.83;;;;;;;13.93;85.56;100685.19;5010809;28;20148;-83
2021/08/03 03:49:11;;;;;;;3.22;2.05;;;;;;;13.99;85.22;100682.09;5017055;28;20045;-83
2021/08/03 03:51:41;;;;;;;3.50;1.90;;;;;;;14.17;84.05;100682.56;5011487;28;20143;-79
2021/08/03 03:54:16;;;;;;;4.95;2.00;;;;;;;14.23;83.77;100697.13;5023648;28;20048;-82
2021/08/03 03:56:48;;;;;;;4.97;2.42;;;;;;;14.30;83.95;100693.09;5005906;28;20121;-81
2021/08/03 03:59:16;;;;;;;6.53;2.38;;;;;;;14.26;84.39;100692.47;5028937;28;20048;-81
2021/08/03 04:01:43;;;;;;;4.07;1.70;;;;;;;14.15;85.59;100684.47;5030441;28;20709;-82
2021/08/03 04:04:11;;;;;;;4.15;2.25;;;;;;;14.19;84.89;100686.78;5030069;28;20069;-85
2021/08/03 04:06:39;;;;;;;4.72;1.95;;;;;;;14.41;84.05;100687.88;5030343;28;20057;-82
2021/08/03 04:09:19;;;;;;;2.83;1.65;;;;;;;14.58;83.28;100692.75;5016974;28;20096;-82
2021/08/03 04:11:46;;;;;;;9.70;2.45;;;;;;;14.39;83.71;100695.91;5033972;28;21316;-81
2021/08/03 04:14:16;;;;;;;3.45;1.70;;;;;;;14.28;84.77;100701.16;5040885;28;20100;-84
2021/08/03 04:16:43;;;;;;;4.13;1.90;;;;;;;14.51;83.92;100699.50;5019792;28;20106;-83
2021/08/03 04:19:11;;;;;;;4.97;1.98;;;;;;;14.51;83.31;100702.16;5028165;28;20128;-83
2021/08/03 04:21:38;;;;;;;6.82;1.70;;;;;;;14.62;83.66;100701.34;5015709;28;20444;-80
2021/08/03 04:24:05;;;;;;;2.70;2.00;;;;;;;14.84;82.34;100698.75;5027004;28;20098;-83
2021/08/03 04:26:33;;;;;;;4.85;2.08;;;;;;;14.79;81.83;100700.09;5003505;28;20053;-81
2021/08/03 04:29:00;;;;;;;3.20;1.50;;;;;;;14.77;82.54;100705.50;5040530;28;20136;-84
2021/08/03 04:31:27;;;;;;;6.07;2.00;;;;;;;14.92;81.66;100704.34;5012995;28;20135;-82
2021/08/03 04:33:54;;;;;;;10.60;3.33;;;;;;;14.82;82.91;100713.94;5007454;28;20480;-82
2021/08/03 04:36:23;;;;;;;4.30;2.20;;;;;;;14.99;82.45;100707.34;5029251;28;20094;-85
2021/08/03 04:38:51;;;;;;;4.80;1.70;;;;;;;15.14;81.05;100708.84;5029229;28;20049;-81
2021/08/03 04:41:18;;;;;;;5.65;2.03;;;;;;;15.29;80.71;100716.59;5010633;28;20053;-83
2021/08/03 04:43:45;;;;;;;4.00;2.00;;;;;;;15.38;79.85;100713.22;5021100;28;20045;-81
2021/08/03 04:46:13;;;;;;;2.90;1.60;;;;;;;15.42;79.79;100710.22;5049921;28;20560;-84
2021/08/03 04:48:40;;;;;;;4.57;1.55;;;;;;;15.43;79.83;100711.06;5025035;28;20136;-82
2021/08/03 04:51:08;;;;;;;3.25;1.55;;;;;;;15.58;79.48;100709.88;4998266;28;20548;-82
2021/08/03 04:53:35;;;;;;;5.68;1.88;;;;;;;15.79;78.48;100717.13;4988131;28;20061;-84
2021/08/03 04:56:03;;;;;;;5.53;1.40;;;;;;;15.96;76.98;100713.97;5029107;28;20578;-83
2021/08/03 04:58:30;;;;;;;5.78;1.95;;;;;;;16.07;75.77;100713.94;5001696;28;20620;-82
2021/08/03 05:00:57;;;;;;;8.00;1.90;;;;;;;16.15;75.37;100708.84;5034148;28;20045;-82
2021/08/03 05:03:24;;;;;;;4.00;2.03;;;;;;;16.30;74.68;100708.56;5031843;28;20071;-81
2021/08/03 05:05:52;;;;;;;4.63;1.75;;;;;;;16.32;74.48;100710.16;5054121;28;20044;-81
2021/08/03 05:08:19;;;;;;;8.52;2.35;;;;;;;16.52;75.08;100711.16;5011717;28;20049;-84
2021/08/03 05:10:46;;;;;;;7.88;1.80;;;;;;;17.51;70.55;100707.25;5052761;28;20072;-84
2021/08/03 05:13:14;;;;;;;9.23;1.98;;;;;;;17.66;69.10;100700.59;5017522;28;20047;-82
2021/08/03 05:15:41;;;;;;;3.95;1.52;;;;;;;17.61;68.97;100700.16;5030389;28;20087;-83
2021/08/03 05:18:08;;;;;;;3.83;1.60;;;;;;;17.42;69.84;100703.56;5013058;28;20404;-82
2021/08/03 05:20:36;;;;;;;4.70;1.58;;;;;;;17.41;69.80;100703.69;5018079;28;20379;-83
2021/08/03 05:23:03;;;;;;;4.05;2.13;;;;;;;17.66;68.28;100707.75;5025068;28;20116;-83
2021/08/03 05:25:30;;;;;;;5.70;1.60;;;;;;;18.64;65.91;100701.63;5053738;28;20084;-81
2021/08/03 05:27:58;;;;;;;4.05;1.95;;;;;;;18.91;63.32;100701.81;5020818;28;20551;-84
2021/08/03 05:30:26;;;;;;;7.70;2.13;;;;;;;18.05;66.63;100700.72;5005545;28;20045;-86
2021/08/03 05:32:53;;;;;;;8.65;2.10;;;;;;;17.75;67.76;100693.66;5030583;28;20075;-82
2021/08/03 05:35:21;;;;;;;3.65;2.08;;;;;;;17.66;67.85;100694.44;5031596;28;20107;-82
2021/08/03 05:37:48;;;;;;;13.50;2.70;;;;;;;17.96;67.10;100704.22;4994181;28;20079;-81
2021/08/03 05:40:15;;;;;;;8.02;1.73;;;;;;;18.01;66.91;100704.66;5010396;28;20128;-82
2021/08/03 05:42:43;;;;;;;6.70;2.22;;;;;;;18.21;66.18;100710.88;5019131;28;20041;-89
2021/08/03 05:45:10;;;;;;;6.68;1.30;;;;;;;18.18;65.70;100713.81;5031958;28;20663;-82
2021/08/03 05:47:38;;;;;;;6.18;1.60;;;;;;;18.08;66.74;100718.28;4999381;28;20037;-82
2021/08/03 05:50:06;;;;;;;8.90;1.65;;;;;;;17.96;66.67;100718.38;5008689;28;20045;-81
2021/08/03 05:52:35;;;;;;;6.45;2.10;;;;;;;17.82;67.72;100715.25;5030767;28;20051;-82
2021/08/03 05:55:03;;;;;;;8.68;1.60;;;;;;;17.67;68.57;100714.75;5030506;28;20049;-83
2021/08/03 05:57:30;;;;;;;5.68;1.45;;;;;;;17.71;68.97;100718.84;5020897;28;20089;-80
2021/08/03 05:59:58;;;;;;;9.40;2.10;;;;;;;17.80;68.82;100714.56;5031235;28;20152;-82
2021/08/03 06:02:25;;;;;;;4.18;1.75;;;;;;;18.28;66.67;100714.69;5031796;28;20052;-82
2021/08/03 06:04:52;;;;;;;5.45;1.75;;;;;;;18.41;65.47;100711.72;5015183;28;20115;-82
2021/08/03 06:07:22;;;;;;;9.38;1.88;;;;;;;18.66;64.78;100713.88;5008691;28;20056;-85
2021/08/03 06:09:50;;;;;;;4.55;1.80;;;;;;;18.88;63.89;100711.94;5020545;28;20095;-80
2021/08/03 06:12:18;;;;;;;4.13;1.33;;;;;;;19.04;63.14;100722.84;5025485;28;20223;-82
2021/08/03 06:14:48;;;;;;;3.50;1.50;;;;;;;18.98;62.84;100720.75;5032396;28;20076;-81
2021/08/03 06:17:17;;;;;;;5.28;1.60;;;;;;;18.71;63.84;100732.97;5046836;28;20676;-81
2021/08/03 06:19:50;;;;;;;5.40;1.60;;;;;;;18.22;65.99;100726.72;5008849;28;20515;-86
2021/08/03 06:22:18;;;;;;;10.77;1.67;;;;;;;18.28;66.25;100733.34;5027730;28;20071;-81
2021/08/03 06:24:50;;;;;;;6.32;2.08;;;;;;;18.29;66.18;100726.19;5035382;28;20041;-81
2021/08/03 06:27:19;;;;;;;4.72;1.35;;;;;;;17.64;68.44;100731.81;5027804;28;20144;-83
2021/08/03 06:29:47;;;;;;;7.78;1.83;;;;;;;17.65;68.92;100730.88;5029152;28;20053;-85
2021/08/03 06:32:14;;;;;;;8.82;2.00;;;;;;;17.67;69.21;100728.91;5028523;28;20080;-83
2021/08/03 06:34:45;;;;;;;5.35;1.50;;;;;;;17.92;68.29;100732.09;5022006;28;20505;-82
2021/08/03 06:37:13;;;;;;;9.07;2.22;;;;;;;18.32;67.08;100734.72;5013846;28;20569;-83
2021/08/03 06:39:41;;;;;;;6.40;1.58;;;;;;;18.18;66.74;100729.78;5017465;28;20040;-81
2021/08/03 06:42:15;;;;;;;31.98;4.35;;;;;;;18.21;66.83;100738.38;5025486;28;20053;-88
2021/08/03 06:45:02;;;;;;;26.60;3.08;;;;;;;18.22;66.73;100736.53;5010609;28;20541;-82
2021/08/03 06:47:49;;;;;;;15.98;3.08;;;;;;;18.16;66.94;100739.75;5020888;28;20053;-83
2021/08/03 06:50:18;;;;;;;8.48;2.28;;;;;;;18.12;66.82;100733.00;5033860;28;20080;-82
2021/08/03 06:52:46;;;;;;;5.88;1.90;;;;;;;18.14;66.93;100739.03;5046543;28;20145;-81
2021/08/03 06:55:14;;;;;;;4.30;1.80;;;;;;;18.29;66.38;100742.19;5038878;28;20096;-82
2021/08/03 06:57:50;;;;;;;6.93;1.90;;;;;;;18.31;66.33;100737.53;5018303;28;20045;-82
2021/08/03 07:00:19;;;;;;;4.80;1.63;;;;;;;18.36;66.35;100743.28;5034089;28;20054;-83
2021/08/03 07:02:48;;;;;;;6.47;1.40;;;;;;;18.63;65.44;100738.13;5057316;28;20108;-80
2021/08/03 07:05:26;;;;;;;8.77;1.83;;;;;;;18.64;65.01;100737.19;5038542;28;20045;-81
2021/08/03 07:07:58;;;;;;;7.25;1.63;;;;;;;18.69;65.41;100734.97;4999892;28;20144;-81
2021/08/03 07:10:26;;;;;;;5.18;1.50;;;;;;;18.57;65.83;100738.69;5052725;28;20500;-83
2021/08/03 07:12:55;;;;;;;2.35;1.20;;;;;;;18.53;66.15;100734.63;4997967;28;20500;-84
2021/08/03 07:15:26;;;;;;;6.05;1.67;;;;;;;18.57;65.98;100736.03;5028229;28;20057;-82
2021/08/03 07:22:15;;;;;;;7.38;1.60;;;;;;;19.10;64.34;100745.47;4993854;28;20051;-81
2021/08/03 07:24:49;;;;;;;5.72;1.40;;;;;;;19.73;62.12;100729.72;4993964;28;20077;-82
2021/08/03 07:27:17;;;;;;;4.50;1.77;;;;;;;20.55;58.19;100738.72;5015016;28;20129;-81
2021/08/03 07:29:44;;;;;;;6.47;1.45;;;;;;;20.45;57.44;100733.41;5027149;28;20492;-82
2021/08/03 07:32:14;;;;;;;5.00;1.75;;;;;;;22.86;51.85;100736.91;5028431;28;20056;-83
2021/08/03 07:34:42;;;;;;;7.00;2.80;;;;;;;24.57;47.80;100732.91;5026836;28;20041;-83
2021/08/03 07:37:09;;;;;;;11.68;2.60;;;;;;;27.29;41.08;100738.38;5028479;28;20033;-82
2021/08/03 07:39:37;;;;;;;5.25;2.35;;;;;;;27.77;38.93;100737.47;5015376;28;20053;-83
2021/08/03 07:42:05;;;;;;;7.13;3.05;;;;;;;26.87;41.04;100740.09;5018819;28;20081;-83
2021/08/03 07:44:35;;;;;;;9.10;2.05;;;;;;;26.57;42.00;100737.53;5033886;28;20492;-81
2021/08/03 07:47:03;;;;;;;7.85;2.35;;;;;;;28.25;38.37;100726.63;5030161;28;20045;-83
2021/08/03 07:49:30;;;;;;;7.38;2.35;;;;;;;29.19;36.90;100736.59;5023710;28;20091;-81
2021/08/03 07:51:59;;;;;;;6.63;1.42;;;;;;;29.18;35.73;100737.66;5019264;28;20045;-84
2021/08/03 07:54:26;;;;;;;6.13;1.80;;;;;;;27.71;38.54;100743.66;5050432;28;20045;-83
2021/08/03 07:56:53;;;;;;;9.88;2.10;;;;;;;28.32;37.43;100734.75;4996358;28;20059;-80
2021/08/03 07:59:22;;;;;;;9.10;2.40;;;;;;;29.50;35.48;100743.25;5031235;28;20041;-81
2021/08/03 08:01:49;;;;;;;5.63;2.00;;;;;;;30.97;33.00;100736.91;5029049;28;20137;-85
2021/08/03 08:04:16;;;;;;;3.00;1.30;;;;;;;31.43;31.39;100738.41;5032797;28;20114;-82
2021/08/03 08:06:44;;;;;;;4.45;1.85;;;;;;;31.10;31.61;100730.53;5016109;28;20068;-81
2021/08/03 08:09:18;;;;;;;5.40;1.60;;;;;;;31.16;30.95;100729.66;5017678;28;20375;-81
2021/08/03 08:11:48;;;;;;;4.07;1.20;;;;;;;29.31;34.38;100727.81;5016199;28;20049;-79
2021/08/03 08:14:15;;;;;;;5.22;1.63;;;;;;;26.93;38.82;100728.53;5011315;28;20041;-82
2021/08/03 08:16:43;;;;;;;5.95;1.50;;;;;;;27.08;38.54;100728.44;5023839;28;20072;-81
2021/08/03 08:19:10;;;;;;;6.93;1.30;;;;;;;25.57;41.66;100729.16;5015693;28;20077;-83
2021/08/03 08:21:37;;;;;;;5.35;1.92;;;;;;;26.59;40.12;100721.97;5030745;28;20130;-81
2021/08/03 08:24:05;;;;;;;4.93;1.67;;;;;;;29.50;34.72;100726.97;5029359;28;20151;-78
2021/08/03 08:26:32;;;;;;;3.67;1.70;;;;;;;28.85;34.88;100718.63;5011168;28;20128;-83
2021/08/03 08:28:59;;;;;;;3.97;1.50;;;;;;;27.23;38.53;100727.31;5012516;28;20133;-83
2021/08/03 08:31:26;;;;;;;5.43;1.50;;;;;;;27.24;38.25;100731.72;5007193;28;20075;-87
2021/08/03 08:33:54;;;;;;;3.78;1.83;;;;;;;26.53;39.58;100728.16;5023975;28;20067;-82
2021/08/03 08:36:21;;;;;;;6.82;1.88;;;;;;;25.19;42.85;100727.38;5029810;28;20050;-83
2021/08/03 08:38:48;;;;;;;3.90;1.33;;;;;;;24.92;43.24;100736.03;5015604;28;20603;-80
2021/08/03 08:41:16;;;;;;;5.53;1.75;;;;;;;24.59;44.20;100720.13;5045106;28;20045;-81
2021/08/03 08:43:43;;;;;;;7.93;1.38;;;;;;;23.65;46.47;100726.47;5025953;28;20095;-82
2021/08/03 08:46:14;;;;;;;4.78;1.73;;;;;;;22.20;49.71;100727.94;5022170;28;20457;-81
2021/08/03 08:48:42;;;;;;;3.92;1.40;;;;;;;21.83;50.47;100714.03;5011042;28;20060;-80
2021/08/03 08:51:10;;;;;;;5.30;1.52;;;;;;;22.49;50.45;100723.97;5024123;28;20037;-80
2021/08/03 08:53:38;;;;;;;5.38;1.23;;;;;;;22.68;49.39;100723.66;5009001;28;20052;-82
2021/08/03 08:56:06;;;;;;;4.00;1.45;;;;;;;22.85;47.67;100724.50;5049152;28;20665;-81
2021/08/03 08:58:34;;;;;;;6.70;1.30;;;;;;;22.38;49.83;100721.59;4988508;28;20144;-83
2021/08/03 09:01:02;;;;;;;5.40;1.50;;;;;;;22.81;48.42;100720.47;5035682;28;20107;-81
2021/08/03 09:03:30;;;;;;;5.57;1.50;;;;;;;22.47;48.95;100726.00;5017933;28;20053;-82
2021/08/03 09:06:03;;;;;;;9.25;1.60;;;;;;;22.27;50.32;100721.91;5026057;28;20049;-80
2021/08/03 09:08:43;;;;;;;5.55;1.58;;;;;;;22.41;49.91;100722.09;5013591;28;20048;-81
2021/08/03 09:11:11;;;;;;;7.10;1.48;;;;;;;22.31;49.85;100726.78;5033568;28;20095;-81
2021/08/03 09:13:55;;;;;;;5.28;1.33;;;;;;;23.07;48.18;100723.03;5049847;28;20075;-81
2021/08/03 09:16:48;;;;;;;5.57;1.80;;;;;;;23.15;47.01;100728.41;5012571;28;20522;-82
2021/08/03 09:19:41;;;;;;;5.22;1.30;;;;;;;23.04;47.52;100723.34;5026506;28;20057;-81
2021/08/03 09:22:21;;;;;;;8.82;2.28;;;;;;;22.11;49.32;100726.22;5032383;28;20068;-81
2021/08/03 09:25:07;;;;;;;3.92;1.50;;;;;;;23.14;48.07;100720.47;5030562;28;20049;-78
2021/08/03 09:27:42;;;;;;;2.90;1.05;;;;;;;23.53;47.12;100717.06;5009978;28;20120;-81
2021/08/03 09:30:27;;;;;;;4.35;1.00;;;;;;;24.26;44.84;100714.91;5002847;28;20076;-81
2021/08/03 09:32:54;;;;;;;4.73;1.00;;;;;;;24.18;44.96;100708.72;5013116;28;20053;-82
2021/08/03 09:35:23;;;;;;;4.30;1.52;;;;;;;23.65;45.17;100713.88;5034172;28;20092;-83
2021/08/03 09:37:52;;;;;;;4.97;1.40;;;;;;;22.95;46.73;100719.00;5035315;28;20208;-81
2021/08/03 09:40:31;;;;;;;9.35;2.28;;;;;;;22.19;48.20;100710.16;5047665;28;20059;-82
2021/08/03 09:43:05;;;;;;;2.33;0.63;;;;;;;22.46;47.55;100711.72;5019138;28;20185;-82
2021/08/03 09:45:35;;;;;;;5.35;1.25;;;;;;;22.49;47.70;100702.50;5041870;28;20071;-83
2021/08/03 09:48:10;;;;;;;3.60;1.10;;;;;;;21.70;49.46;100701.94;5018703;28;20589;-80
2021/08/03 09:50:50;;;;;;;3.45;1.13;;;;;;;21.65;50.28;100706.06;5023661;28;20087;-81
2021/08/03 09:53:45;;;;;;;2.45;1.20;;;;;;;22.20;49.31;100703.81;5027948;28;20049;-81
2021/08/03 09:56:28;;;;;;;5.30;1.43;;;;;;;22.85;47.68;100710.25;5014950;28;20486;-82
2021/08/03 09:58:58;;;;;;;6.47;1.00;;;;;;;23.23;45.98;100706.88;5032070;28;20141;-81
2021/08/03 10:01:34;;;;;;;5.72;1.40;;;;;;;23.15;45.95;100714.97;5035221;28;20048;-84
2021/08/03 10:04:11;;;;;;;6.93;1.77;;;;;;;23.35;45.91;100710.03;5013450;28;20263;-82
2021/08/03 10:06:40;;;;;;;3.35;1.13;;;;;;;23.39;45.13;100714.06;5029900;28;20049;-82
2021/08/03 10:09:09;;;;;;;2.92;1.38;;;;;;;22.64;47.43;100706.19;5018549;28;20063;-82
2021/08/03 10:11:36;;;;;;;5.50;1.83;;;;;;;22.95;46.63;100713.63;5049836;28;20081;-86
2021/08/03 10:14:23;;;;;;;3.10;0.88;;;;;;;21.90;46.25;100705.19;5020170;28;20119;-82
2021/08/03 10:16:53;;;;;;;4.10;1.40;;;;;;;21.96;46.34;100711.72;5015640;28;20143;-84
2021/08/03 10:19:26;;;;;;;2.35;1.02;;;;;;;22.63;45.91;100704.53;5056665;28;20049;-82
2021/08/03 10:22:27;;;;;;;4.40;1.40;;;;;;;22.95;45.19;100701.03;5017500;28;20056;-81
2021/08/03 10:24:58;;;;;;;2.25;0.90;;;;;;;23.16;44.28;100705.06;5023754;28;20060;-83
2021/08/03 10:27:51;;;;;;;4.70;0.95;;;;;;;23.27;43.88;100699.31;4994906;28;20467;-83
2021/08/03 10:30:34;;;;;;;4.32;1.20;;;;;;;22.52;45.61;100696.81;5023672;28;20164;-81
2021/08/03 10:33:10;;;;;;;3.75;1.63;;;;;;;23.48;43.78;100688.03;5025929;28;20081;-80
2021/08/03 10:35:40;;;;;;;;;;;;;;;23.74;42.08;100685.94;5053682;28;20049;-80
2021/08/03 10:38:29;;;;;;;3.90;1.30;;;;;;;23.99;40.78;100685.81;5049489;28;19964;-80
2021/08/03 10:41:00;;;;;;;2.90;1.08;;;;;;;24.07;40.70;100688.47;4997204;28;20120;-81
2021/08/03 10:43:33;;;;;;;4.70;1.30;;;;;;;24.17;40.32;100682.84;5019088;28;20049;-83
2021/08/03 10:46:06;;;;;;;2.10;0.98;;;;;;;24.73;40.50;100678.97;5052812;28;20052;-83
2021/08/03 10:48:37;;;;;;;3.20;1.20;;;;;;;25.11;40.20;100681.66;5010626;28;20112;-83
2021/08/03 10:51:25;;;;;;;5.50;1.48;;;;;;;24.66;40.26;100679.84;5034822;28;20076;-81
2021/08/03 10:54:13;;;;;;;3.75;1.15;;;;;;;24.21;40.85;100671.56;5004640;28;20633;-82
2021/08/03 10:56:52;;;;;;;3.20;1.35;;;;;;;24.05;41.95;100676.22;5045566;28;20277;-83
2021/08/03 10:59:34;;;;;;;5.22;1.30;;;;;;;23.22;42.79;100680.19;5042794;28;20449;-82
2021/08/03 11:02:07;;;;;;;4.18;1.50;;;;;;;23.71;40.73;100670.16;5031015;28;20049;-80
2021/08/03 11:04:47;;;;;;;4.93;1.08;;;;;;;23.80;40.86;100665.59;5032783;28;20124;-81
2021/08/03 11:07:26;;;;;;;10.40;1.70;;;;;;;23.62;41.05;100657.72;5040914;28;20095;-81
2021/08/03 11:09:54;;;;;;;3.10;1.13;;;;;;;23.45;42.04;100656.94;5058032;28;20065;-81
2021/08/03 11:12:40;;;;;;;4.63;1.10;;;;;;;24.12;41.88;100664.56;5032984;28;20042;-82
2021/08/03 11:15:21;;;;;;;3.45;1.33;;;;;;;24.26;40.82;100655.72;5031749;28;20222;-81
2021/08/03 11:18:16;;;;;;;6.13;1.55;;;;;;;24.37;40.63;100656.38;5024558;28;20052;-82
2021/08/03 11:20:44;;;;;;;3.38;1.42;;;;;;;24.01;41.08;100648.84;5053754;28;20113;-80
2021/08/03 11:23:16;;;;;;;3.35;1.13;;;;;;;24.40;41.15;100646.06;5014198;28;20064;-80
2021/08/03 11:25:45;;;;;;;3.40;1.13;;;;;;;23.96;43.09;100648.53;5016466;28;20136;-83
2021/08/03 11:28:15;;;;;;;4.50;1.63;;;;;;;24.22;42.14;100640.13;5009777;28;20120;-80
2021/08/03 11:30:46;;;;;;;4.22;1.20;;;;;;;23.63;42.58;100642.44;5020220;28;20092;-82
2021/08/03 11:33:15;;;;;;;3.65;1.38;;;;;;;23.66;43.85;100640.28;5006692;28;20041;-82
2021/08/03 11:35:43;;;;;;;5.35;1.70;;;;;;;23.86;42.44;100645.22;5036117;28;20049;-80
2021/08/03 11:38:15;;;;;;;6.28;1.33;;;;;;;24.10;39.29;100639.72;5001727;28;20045;-79
2021/08/03 11:40:42;;;;;;;4.18;1.40;;;;;;;24.21;38.59;100644.66;5022257;28;20041;-81
2021/08/03 11:43:10;;;;;;;5.15;1.85;;;;;;;24.38;38.90;100640.03;5030265;28;20143;-81
2021/08/03 11:45:40;;;;;;;3.17;1.27;;;;;;;24.39;39.70;100635.50;5029676;28;20503;-81
2021/08/03 11:48:24;;;;;;;5.00;1.85;;;;;;;24.29;40.94;100627.63;5010077;28;20049;-79